createdAt,value
2019-05-25T00:01:07.742Z,6.20
2019-05-25T00:03:36.875Z,6.27
2019-05-25T00:06:06.056Z,6.57
2019-05-25T00:08:35.474Z,6.43
2019-05-25T00:11:04.366Z,6.97
2019-05-25T00:13:33.580Z,6.47
2019-05-25T00:16:02.845Z,6.77
2019-05-25T00:18:31.983Z,6.27
2019-05-25T00:21:01.025Z,6.77
2019-05-25T00:23:30.311Z,6.07
2019-05-25T00:25:59.436Z,6.73
2019-05-25T00:28:28.880Z,6.77
2019-05-25T00:30:58.003Z,6.50
2019-05-25T00:33:27.192Z,6.27
2019-05-25T00:35:56.506Z,6.40
2019-05-25T00:38:25.547Z,5.83
2019-05-25T00:40:54.333Z,6.30
2019-05-25T00:43:23.887Z,6.70
2019-05-25T00:45:53.410Z,6.10
2019-05-25T00:48:23.262Z,5.83
2019-05-25T00:50:52.552Z,5.83
2019-05-25T00:53:21.946Z,6.23
2019-05-25T00:55:51.548Z,6.40
2019-05-25T00:58:20.920Z,6.40
2019-05-25T01:00:49.951Z,6.93
2019-05-25T01:03:19.784Z,6.70
2019-05-25T01:05:48.553Z,6.33
2019-05-25T01:08:18.002Z,6.60
2019-05-25T01:10:47.120Z,7.10
2019-05-25T01:13:16.403Z,7.73
2019-05-25T01:15:45.787Z,8.10
2019-05-25T01:18:15.067Z,7.53
2019-05-25T01:20:44.500Z,7.57
2019-05-25T01:23:14.136Z,8.37
2019-05-25T01:25:43.291Z,7.73
2019-05-25T01:28:12.834Z,7.53
2019-05-25T01:30:41.649Z,7.80
2019-05-25T01:33:11.063Z,8.10
2019-05-25T01:35:40.387Z,7.73
2019-05-25T01:38:09.944Z,7.70
2019-05-25T01:40:39.649Z,7.40
2019-05-25T06:23:44.549Z,8.40
2019-05-25T06:33:08.473Z,7.80
2019-05-25T06:46:03.034Z,7.17
2019-05-25T06:48:31.959Z,6.83
2019-05-25T06:51:01.143Z,7.70
2019-05-25T06:53:30.284Z,7.60
2019-05-25T06:55:59.032Z,7.40
2019-05-25T06:58:28.091Z,8.03
2019-05-25T07:00:56.918Z,6.50
2019-05-25T07:03:26.041Z,7.80
2019-05-25T07:05:55.629Z,6.17
2019-05-25T07:08:24.935Z,6.00
2019-05-25T07:10:53.878Z,5.83
2019-05-25T07:13:22.870Z,5.57
2019-05-25T07:15:52.300Z,5.80
2019-05-25T07:18:22.714Z,5.50
2019-05-25T07:20:51.960Z,5.10
2019-05-25T07:23:21.493Z,5.50
2019-05-25T07:25:50.258Z,4.77
2019-05-25T07:28:19.111Z,4.80
2019-05-25T07:30:47.981Z,4.80
2019-05-25T07:33:16.896Z,4.40
2019-05-25T07:35:45.917Z,3.97
2019-05-25T07:38:14.727Z,4.00
2019-05-25T07:40:44.072Z,4.57
2019-05-25T07:43:13.451Z,4.77
2019-05-25T07:45:42.556Z,4.27
2019-05-25T07:48:12.374Z,4.27
2019-05-25T07:50:41.680Z,3.97
2019-05-25T07:53:11.331Z,4.40
2019-05-25T07:55:40.653Z,4.03
2019-05-25T07:58:17.598Z,3.63
2019-05-25T08:00:40.824Z,4.20
2019-05-25T08:03:09.943Z,3.67
2019-05-25T08:05:39.092Z,3.47
2019-05-25T08:08:08.188Z,3.50
2019-05-25T08:10:37.003Z,3.40
2019-05-25T08:13:06.254Z,3.80
2019-05-25T08:15:36.943Z,3.17
2019-05-25T08:18:06.182Z,3.83
2019-05-25T08:20:35.872Z,3.53
2019-05-25T08:23:05.140Z,3.40
2019-05-25T08:25:34.107Z,3.70
2019-05-25T08:28:03.504Z,4.20
2019-05-25T08:30:32.883Z,4.00
2019-05-25T08:33:01.990Z,4.00
2019-05-25T08:35:31.083Z,4.60
2019-05-25T08:38:00.323Z,4.73
2019-05-25T08:40:29.200Z,4.50
2019-05-25T08:42:58.472Z,5.40
2019-05-25T08:45:27.795Z,4.93
2019-05-25T08:47:57.395Z,4.37
2019-05-25T08:50:37.718Z,4.83
2019-05-25T08:52:58.452Z,5.10
2019-05-25T08:55:27.755Z,4.60
2019-05-25T08:57:57.176Z,4.40
2019-05-25T09:00:26.689Z,4.80
2019-05-25T09:02:56.268Z,5.50
2019-05-25T09:05:25.198Z,5.23
2019-05-25T09:07:54.658Z,4.90
2019-05-25T09:10:23.964Z,4.70
2019-05-25T09:12:53.283Z,4.53
2019-05-25T09:15:22.583Z,4.30
2019-05-25T09:17:51.959Z,4.12
2019-05-25T09:20:21.003Z,4.47
2019-05-25T09:22:49.906Z,4.57
2019-05-25T09:25:19.418Z,4.43
2019-05-25T09:27:49.039Z,4.27
2019-05-25T09:30:18.071Z,4.42
2019-05-25T09:32:47.123Z,4.22
2019-05-25T09:35:16.517Z,4.35
2019-05-25T09:37:45.736Z,4.37
2019-05-25T09:40:17.524Z,4.67
2019-05-25T09:42:46.713Z,4.72
2019-05-25T09:45:15.716Z,4.47
2019-05-25T09:47:45.198Z,4.78
2019-05-25T09:50:15.049Z,3.98
2019-05-25T09:52:43.970Z,3.87
2019-05-25T09:55:13.480Z,4.00
2019-05-25T09:57:42.799Z,5.25
2019-05-25T10:00:13.130Z,3.80
2019-05-25T10:02:42.887Z,4.65
2019-05-25T10:05:12.719Z,4.83
2019-05-25T10:07:41.830Z,4.12
2019-05-25T10:10:12.021Z,3.70
2019-05-25T10:12:41.044Z,3.80
2019-05-25T10:15:11.890Z,4.10
2019-05-25T10:17:41.410Z,4.30
2019-05-25T10:20:11.073Z,3.92
2019-05-25T10:22:39.918Z,3.85
2019-05-25T10:25:09.836Z,3.67
2019-05-25T10:27:38.709Z,4.50
2019-05-25T10:30:08.615Z,4.50
2019-05-25T10:32:38.228Z,3.80
2019-05-25T10:35:07.470Z,4.72
2019-05-25T10:37:36.282Z,4.17
2019-05-25T10:40:06.258Z,3.98
2019-05-25T10:42:35.763Z,4.72
2019-05-25T10:45:05.780Z,4.62
2019-05-25T10:47:37.806Z,4.60
2019-05-25T10:50:06.979Z,4.67
2019-05-25T10:52:36.155Z,4.50
2019-05-25T10:55:05.275Z,5.22
2019-05-25T10:57:34.723Z,4.00
2019-05-25T11:00:03.897Z,5.12
2019-05-25T11:02:32.807Z,4.85
2019-05-25T11:05:01.818Z,4.80
2019-05-25T11:07:31.165Z,4.05
2019-05-25T11:10:00.377Z,3.67
2019-05-25T11:12:29.615Z,3.60
2019-05-25T11:14:58.506Z,2.85
2019-05-25T11:17:27.816Z,2.83
2019-05-25T11:19:56.717Z,2.72
2019-05-25T11:22:25.692Z,1.95
2019-05-25T11:24:54.686Z,2.00
2019-05-25T11:27:23.532Z,1.75
2019-05-25T11:30:07.599Z,2.02
2019-05-25T11:32:22.969Z,2.25
2019-05-25T11:34:52.226Z,2.37
2019-05-25T11:37:21.040Z,2.00
2019-05-25T11:39:50.178Z,1.82
2019-05-25T11:42:19.057Z,1.92
2019-05-25T11:44:48.287Z,1.85
2019-05-25T11:47:17.097Z,2.20
2019-05-25T11:49:46.198Z,2.30
2019-05-25T11:52:15.363Z,2.02
2019-05-25T11:54:44.739Z,1.98
2019-05-25T11:57:13.766Z,2.33
2019-05-25T11:59:42.894Z,2.25
2019-05-25T12:02:12.055Z,2.22
2019-05-25T12:04:40.979Z,2.37
2019-05-25T12:07:09.942Z,2.20
2019-05-25T12:09:38.791Z,2.10
2019-05-25T12:12:07.911Z,2.00
2019-05-25T12:14:37.353Z,2.20
2019-05-25T12:17:06.300Z,2.60
2019-05-25T12:19:35.582Z,2.17
2019-05-25T12:22:04.558Z,2.15
2019-05-25T12:24:34.042Z,1.80
2019-05-25T12:27:02.971Z,1.90
2019-05-25T12:29:32.202Z,2.10
2019-05-25T12:32:04.400Z,2.15
2019-05-25T12:34:32.058Z,2.00
2019-05-25T12:37:00.975Z,1.77
2019-05-25T12:39:30.442Z,1.98
2019-05-25T12:41:59.634Z,2.08
2019-05-25T12:44:28.702Z,2.67
2019-05-25T12:46:57.925Z,2.42
2019-05-25T12:49:26.832Z,2.80
2019-05-25T12:51:55.761Z,2.08
2019-05-25T12:54:24.611Z,2.10
2019-05-25T12:56:53.734Z,2.37
2019-05-25T12:59:22.651Z,2.00
2019-05-25T13:01:51.832Z,1.70
2019-05-25T13:04:20.629Z,1.95
2019-05-25T13:06:49.765Z,1.90
2019-05-25T13:09:18.859Z,2.05
2019-05-25T13:11:47.954Z,2.02
2019-05-25T13:14:17.324Z,1.98
2019-05-25T13:16:46.782Z,1.90
2019-05-25T13:19:15.581Z,1.50
2019-05-25T13:21:44.972Z,1.90
2019-05-25T13:24:14.403Z,1.87
2019-05-25T13:26:43.289Z,1.82
2019-05-25T13:29:12.244Z,2.10
2019-05-25T13:31:41.670Z,1.90
2019-05-25T13:34:10.666Z,2.00
2019-05-25T13:36:39.906Z,1.95
2019-05-25T13:39:08.767Z,1.70
2019-05-25T13:41:38.182Z,1.72
2019-05-25T13:44:07.349Z,1.87
2019-05-25T13:46:36.948Z,1.67
2019-05-25T13:49:05.829Z,1.45
2019-05-25T13:51:35.303Z,1.90
2019-05-25T13:54:04.403Z,1.62
2019-05-25T13:56:33.831Z,1.75
2019-05-25T13:59:03.258Z,1.85
2019-05-25T14:01:32.564Z,2.00
2019-05-25T14:04:01.694Z,1.87
2019-05-25T14:06:30.487Z,2.22
2019-05-25T14:08:59.610Z,2.02
2019-05-25T14:11:28.804Z,1.62
2019-05-25T14:13:58.154Z,2.22
2019-05-25T14:16:27.358Z,1.72
2019-05-25T14:18:56.240Z,1.80
2019-05-25T14:21:25.214Z,2.08
2019-05-25T14:23:54.445Z,1.95
2019-05-25T14:26:23.454Z,3.02
2019-05-25T14:28:52.586Z,2.33
2019-05-25T14:31:21.490Z,1.98
2019-05-25T14:33:50.395Z,1.90
2019-05-25T14:36:19.971Z,1.70
2019-05-25T14:38:48.795Z,2.10
2019-05-25T14:41:17.915Z,1.85
2019-05-25T14:43:47.547Z,2.02
2019-05-25T14:46:27.459Z,2.05
2019-05-25T14:48:47.530Z,1.77
2019-05-25T14:51:16.487Z,2.30
2019-05-25T14:53:45.822Z,2.20
2019-05-25T14:56:15.234Z,2.27
2019-05-25T14:58:44.413Z,2.00
2019-05-25T15:01:13.419Z,1.80
2019-05-25T15:03:42.554Z,1.80
2019-05-25T15:06:11.575Z,1.85
2019-05-25T15:08:40.759Z,1.90
2019-05-25T15:11:09.886Z,1.95
2019-05-25T15:13:38.984Z,1.80
2019-05-25T15:16:07.800Z,2.00
2019-05-25T15:18:37.316Z,1.67
2019-05-25T15:21:06.387Z,2.08
2019-05-25T15:23:35.647Z,1.90
2019-05-25T15:26:04.735Z,2.10
2019-05-25T15:28:33.923Z,2.00
2019-05-25T15:31:02.825Z,1.98
2019-05-25T15:33:35.071Z,2.10
2019-05-25T15:36:04.290Z,2.20
2019-05-25T15:38:33.627Z,2.00
2019-05-25T15:41:03.007Z,2.45
2019-05-25T15:43:32.110Z,2.30
2019-05-25T15:46:02.285Z,2.27
2019-05-25T15:48:31.385Z,2.35
2019-05-25T15:51:00.323Z,1.92
2019-05-25T15:53:29.188Z,2.27
2019-05-25T15:55:58.475Z,1.80
2019-05-25T15:58:27.732Z,2.47
2019-05-25T16:00:56.605Z,2.60
2019-05-25T16:03:25.537Z,2.57
2019-05-25T16:05:54.823Z,2.75
2019-05-25T16:08:24.018Z,2.40
2019-05-25T16:10:53.323Z,2.37
2019-05-25T16:13:22.919Z,2.60
2019-05-25T16:15:52.126Z,2.60
2019-05-25T16:18:21.115Z,2.50
2019-05-25T16:20:49.959Z,2.37
2019-05-25T16:23:19.389Z,2.00
2019-05-25T16:25:48.513Z,1.90
2019-05-25T16:28:18.131Z,1.80
2019-05-25T16:30:46.964Z,2.10
2019-05-25T16:33:16.274Z,1.98
2019-05-25T16:35:45.584Z,2.12
2019-05-25T16:38:14.755Z,2.00
2019-05-25T16:40:43.923Z,1.90
2019-05-25T16:43:12.819Z,1.80
2019-05-25T16:45:41.895Z,2.60
2019-05-25T16:48:10.699Z,3.13
2019-05-25T16:50:39.918Z,3.20
2019-05-25T16:53:09.625Z,3.30
2019-05-25T16:55:38.919Z,3.42
2019-05-25T16:58:07.803Z,2.83
2019-05-25T17:00:36.861Z,3.20
2019-05-25T17:03:05.945Z,3.10
2019-05-25T17:05:35.387Z,5.27
2019-05-25T17:08:04.532Z,5.03
2019-05-25T17:10:33.376Z,3.85
2019-05-25T17:13:02.282Z,2.83
2019-05-25T17:15:31.304Z,2.50
2019-05-25T17:18:04.354Z,2.70
2019-05-25T17:20:31.188Z,3.20
2019-05-25T17:23:00.478Z,3.20
2019-05-25T17:25:29.794Z,3.10
2019-05-25T17:27:58.684Z,3.10
2019-05-25T17:30:39.732Z,3.27
2019-05-25T17:33:09.258Z,7.45
2019-05-25T17:35:39.144Z,3.40
2019-05-25T17:38:08.111Z,3.20
2019-05-25T17:40:46.424Z,3.00
2019-05-25T17:43:16.080Z,3.60
2019-05-25T17:45:50.903Z,2.70
2019-05-25T17:48:25.846Z,3.80
2019-05-25T17:50:56.519Z,3.20
2019-05-25T17:53:36.103Z,2.97
2019-05-25T17:56:05.487Z,3.10
2019-05-25T17:58:40.488Z,2.80
2019-05-25T18:01:14.184Z,2.83
2019-05-25T18:04:04.940Z,3.00
2019-05-25T18:06:18.098Z,3.25
2019-05-25T18:09:13.087Z,3.27
2019-05-25T18:11:47.260Z,2.90
2019-05-25T18:14:17.009Z,3.00
2019-05-25T18:16:46.201Z,3.27
2019-05-25T18:19:15.635Z,3.60
2019-05-25T18:21:45.595Z,3.72
2019-05-25T18:24:15.505Z,3.80
2019-05-25T18:26:45.247Z,3.52
2019-05-25T18:29:14.801Z,3.37
2019-05-25T18:31:43.893Z,3.30
2019-05-25T18:34:21.758Z,3.75
2019-05-25T18:36:43.959Z,3.30
2019-05-25T18:39:13.472Z,3.50
2019-05-25T18:41:42.875Z,3.57
2019-05-25T18:44:11.991Z,3.83
2019-05-25T18:46:41.563Z,3.83
2019-05-25T18:49:10.810Z,3.40
2019-05-25T18:51:40.057Z,3.25
2019-05-25T18:54:09.381Z,3.22
2019-05-25T18:56:39.280Z,3.80
2019-05-25T18:59:10.392Z,5.53
2019-05-25T19:01:41.757Z,5.40
2019-05-25T19:04:11.533Z,5.67
2019-05-25T19:06:41.048Z,6.97
2019-05-25T19:09:12.357Z,6.95
2019-05-25T19:11:41.868Z,5.80
2019-05-25T19:14:11.481Z,6.15
2019-05-25T19:16:41.591Z,6.20
2019-05-25T19:19:11.203Z,5.57
2019-05-25T19:21:40.938Z,6.10
2019-05-25T19:24:11.033Z,7.20
2019-05-25T19:26:40.821Z,8.03
2019-05-25T19:29:10.298Z,8.13
2019-05-25T19:31:39.549Z,8.47
2019-05-25T19:34:08.832Z,7.30
2019-05-25T19:36:38.153Z,7.53
2019-05-25T19:39:08.196Z,8.28
2019-05-25T19:41:38.326Z,7.67
2019-05-25T19:44:09.724Z,8.63
2019-05-25T19:46:39.179Z,11.20
2019-05-25T19:49:08.775Z,9.40
2019-05-25T19:51:37.584Z,8.70
2019-05-25T19:54:07.707Z,8.23
2019-05-25T19:56:36.963Z,8.10
2019-05-25T19:59:06.472Z,7.33
2019-05-25T20:01:37.685Z,6.20
2019-05-25T20:04:07.243Z,6.83
2019-05-25T20:06:36.833Z,7.60
2019-05-25T20:09:09.911Z,7.65
2019-05-25T20:11:39.315Z,8.03
2019-05-25T20:14:08.889Z,8.60
2019-05-25T20:16:37.809Z,10.98
2019-05-25T20:19:07.109Z,9.48
2019-05-25T20:21:36.383Z,8.35
2019-05-25T20:24:05.332Z,7.72
2019-05-25T20:26:34.571Z,7.50
2019-05-25T20:29:03.643Z,13.45
2019-05-25T20:31:32.859Z,26.90
2019-05-25T20:34:02.049Z,18.10
2019-05-25T20:36:31.546Z,14.78
2019-05-25T20:39:00.928Z,16.47
2019-05-25T20:41:29.920Z,14.35
2019-05-25T20:43:59.138Z,15.53
2019-05-25T20:46:28.261Z,18.12
2019-05-25T20:48:57.146Z,20.00
2019-05-25T20:51:25.998Z,19.73
2019-05-25T20:53:55.370Z,19.42
2019-05-25T20:56:26.815Z,19.27
2019-05-25T20:58:56.224Z,19.20
2019-05-25T21:01:25.484Z,19.12
2019-05-25T21:03:54.662Z,17.20
2019-05-25T21:06:23.839Z,14.90
2019-05-25T21:08:52.713Z,13.38
2019-05-25T21:11:22.018Z,11.60
2019-05-25T21:13:51.144Z,11.03
2019-05-25T21:16:20.385Z,11.90
2019-05-25T21:18:49.358Z,11.35
2019-05-25T21:21:18.850Z,10.70
2019-05-25T21:23:48.087Z,11.00
2019-05-25T21:26:16.902Z,10.77
2019-05-25T21:28:45.744Z,12.78
2019-05-25T21:31:15.523Z,13.25
2019-05-25T21:33:44.683Z,10.93
2019-05-25T21:36:14.198Z,10.63
2019-05-25T21:38:45.082Z,9.93
2019-05-25T21:41:13.729Z,8.75
2019-05-25T21:43:43.192Z,7.83
2019-05-25T21:46:12.562Z,8.13
2019-05-25T21:48:41.646Z,7.70
2019-05-25T21:51:11.063Z,7.63
2019-05-25T21:53:39.953Z,7.45
2019-05-25T21:56:09.433Z,8.25
2019-05-25T21:58:38.639Z,7.97
2019-05-25T22:01:07.906Z,7.65
2019-05-25T22:03:37.138Z,8.00
2019-05-25T22:06:22.938Z,8.20
2019-05-25T22:08:37.634Z,7.17
2019-05-25T22:11:06.520Z,7.77
2019-05-25T22:13:35.626Z,8.10
2019-05-25T22:16:04.591Z,11.38
2019-05-25T22:18:33.817Z,11.15
2019-05-25T22:21:02.639Z,10.55
2019-05-25T22:23:31.787Z,11.30
2019-05-25T22:26:03.751Z,11.25
2019-05-25T22:28:44.217Z,10.78
2019-05-25T22:31:03.688Z,8.70
2019-05-25T22:33:32.794Z,9.50
2019-05-25T22:36:01.874Z,9.15
2019-05-25T22:38:31.049Z,10.13
2019-05-25T22:40:59.894Z,10.08
2019-05-25T22:43:28.749Z,9.20
2019-05-25T22:45:57.675Z,10.00
2019-05-25T22:48:26.770Z,9.03
2019-05-25T22:50:55.652Z,9.53
2019-05-25T22:53:24.960Z,9.50
2019-05-25T22:55:54.099Z,12.53
2019-05-25T22:58:23.202Z,10.77
2019-05-25T23:00:52.383Z,11.10
2019-05-25T23:03:21.230Z,9.90
2019-05-25T23:05:50.423Z,8.80
2019-05-25T23:08:19.973Z,9.48
2019-05-25T23:10:49.275Z,9.58
2019-05-25T23:13:18.302Z,8.40
2019-05-25T23:15:47.419Z,8.23
2019-05-25T23:18:16.226Z,8.50
2019-05-25T23:20:45.129Z,8.87
2019-05-25T23:23:14.007Z,8.83
2019-05-25T23:25:42.893Z,9.48
2019-05-25T23:28:12.314Z,10.40
2019-05-25T23:30:41.823Z,10.40
2019-05-25T23:33:10.770Z,9.80
2019-05-25T23:35:39.890Z,8.85
2019-05-25T23:38:08.704Z,8.47
2019-05-25T23:40:37.612Z,8.73
2019-05-25T23:43:07.143Z,9.60
2019-05-25T23:45:36.046Z,8.63
2019-05-25T23:48:04.888Z,8.13
2019-05-25T23:50:34.010Z,7.10
2019-05-25T23:53:03.100Z,6.83
2019-05-25T23:55:32.253Z,7.55
2019-05-25T23:58:01.427Z,7.42
